createdAt,value
2022-12-05T00:01:40.916Z,5.20
2022-12-05T00:04:10.375Z,5.20
2022-12-05T00:06:38.692Z,5.20
2022-12-05T00:09:06.253Z,5.20
2022-12-05T00:11:34.451Z,5.20
2022-12-05T00:14:03.613Z,5.20
2022-12-05T00:16:31.459Z,5.20
2022-12-05T00:19:01.846Z,5.20
2022-12-05T00:21:30.344Z,5.20
2022-12-05T00:23:59.815Z,5.20
2022-12-05T00:26:26.746Z,5.20
2022-12-05T00:28:54.612Z,5.30
2022-12-05T00:31:22.120Z,5.30
2022-12-05T00:33:49.465Z,5.40
2022-12-05T00:36:18.813Z,5.40
2022-12-05T00:38:45.816Z,5.40
2022-12-05T00:41:14.320Z,5.40
2022-12-05T00:43:41.600Z,5.40
2022-12-05T00:46:09.887Z,5.40
2022-12-05T00:48:36.966Z,5.40
2022-12-05T00:51:05.136Z,5.40
2022-12-05T00:53:32.661Z,5.40
2022-12-05T00:56:03.701Z,5.40
2022-12-05T00:58:30.761Z,5.40
2022-12-05T01:00:57.607Z,5.30
2022-12-05T01:03:24.660Z,5.30
2022-12-05T01:05:51.424Z,5.30
2022-12-05T01:08:18.201Z,5.30
2022-12-05T01:10:52.188Z,5.30
2022-12-05T01:13:18.964Z,5.30
2022-12-05T01:15:45.795Z,5.30
2022-12-05T01:18:12.508Z,5.30
2022-12-05T01:20:39.864Z,5.30
2022-12-05T01:23:06.765Z,5.20
2022-12-05T01:25:33.866Z,5.30
2022-12-05T01:28:00.808Z,5.20
2022-12-05T01:30:27.606Z,5.30
2022-12-05T01:32:54.490Z,5.30
2022-12-05T01:35:21.292Z,5.40
2022-12-05T01:37:48.053Z,5.40
2022-12-05T01:40:14.758Z,5.40
2022-12-05T01:42:41.581Z,5.40
2022-12-05T01:45:32.722Z,5.40
2022-12-05T01:48:01.542Z,5.50
2022-12-05T01:50:28.377Z,5.40
2022-12-05T01:52:55.203Z,5.40
2022-12-05T01:55:22.052Z,5.40
2022-12-05T01:57:49.119Z,5.40
2022-12-05T02:00:17.845Z,5.40
2022-12-05T02:02:49.005Z,5.40
2022-12-05T02:05:20.970Z,5.50
2022-12-05T02:07:48.256Z,5.50
2022-12-05T02:10:15.600Z,5.50
2022-12-05T02:12:43.680Z,5.50
2022-12-05T02:15:10.456Z,5.60
2022-12-05T02:17:56.250Z,5.50
2022-12-05T02:20:41.993Z,5.50
2022-12-05T02:23:23.020Z,5.50
2022-12-05T02:25:56.197Z,5.60
2022-12-05T02:28:23.042Z,5.50
2022-12-05T02:30:53.607Z,5.50
2022-12-05T02:33:38.926Z,5.50
2022-12-05T02:36:09.865Z,5.50
2022-12-05T02:38:39.631Z,5.50
2022-12-05T02:41:06.458Z,5.60
2022-12-05T02:43:51.587Z,5.60
2022-12-05T02:46:21.184Z,5.60
2022-12-05T02:48:50.386Z,5.70
2022-12-05T02:51:19.353Z,5.70
2022-12-05T02:53:48.173Z,5.70
2022-12-05T02:56:15.359Z,5.60
2022-12-05T02:58:45.533Z,5.60
2022-12-05T03:01:12.376Z,5.60
2022-12-05T03:03:39.312Z,5.60
2022-12-05T03:06:17.849Z,5.60
2022-12-05T03:08:48.151Z,5.60
2022-12-05T03:11:15.590Z,5.60
2022-12-05T03:13:45.882Z,5.60
2022-12-05T03:16:19.675Z,5.60
2022-12-05T03:18:54.135Z,5.60
2022-12-05T03:21:25.300Z,5.60
2022-12-05T03:23:56.362Z,5.60
2022-12-05T03:26:37.245Z,5.70
2022-12-05T03:29:10.068Z,5.70
2022-12-05T03:31:42.261Z,5.70
2022-12-05T03:34:12.677Z,5.70
2022-12-05T03:36:41.476Z,5.70
2022-12-05T03:39:18.578Z,5.80
2022-12-05T03:42:02.140Z,5.70
2022-12-05T03:44:38.036Z,5.80
2022-12-05T03:47:10.932Z,5.80
2022-12-05T03:49:47.254Z,5.80
2022-12-05T03:52:16.782Z,5.80
2022-12-05T03:54:50.021Z,5.70
2022-12-05T03:57:38.079Z,5.70
2022-12-05T04:00:09.915Z,5.80
2022-12-05T04:02:45.824Z,5.80
2022-12-05T04:05:21.400Z,5.70
2022-12-05T04:08:08.512Z,5.70
2022-12-05T04:10:48.608Z,5.80
2022-12-05T04:13:23.996Z,5.80
2022-12-05T04:16:18.269Z,5.80
2022-12-05T04:18:51.788Z,5.80
2022-12-05T04:21:38.555Z,5.80
2022-12-05T04:24:36.165Z,5.90
2022-12-05T04:27:26.450Z,5.80
2022-12-05T04:29:59.791Z,5.80
2022-12-05T04:32:30.644Z,5.80
2022-12-05T04:34:58.785Z,5.80
2022-12-05T04:37:26.299Z,5.80
2022-12-05T04:39:56.946Z,5.70
2022-12-05T04:42:26.342Z,5.80
2022-12-05T04:44:54.411Z,5.80
2022-12-05T04:47:24.606Z,5.80
2022-12-05T04:49:53.914Z,5.90
2022-12-05T04:52:21.699Z,5.90
2022-12-05T04:54:52.526Z,5.90
2022-12-05T04:57:19.297Z,5.90
2022-12-05T04:59:46.329Z,5.90
2022-12-05T05:02:14.905Z,5.90
2022-12-05T05:04:44.007Z,5.90
2022-12-05T05:07:11.478Z,5.90
2022-12-05T05:09:39.018Z,5.90
2022-12-05T05:12:06.147Z,5.90
2022-12-05T05:14:33.140Z,5.90
2022-12-05T05:16:59.871Z,5.90
2022-12-05T05:19:26.743Z,5.90
2022-12-05T05:21:53.489Z,5.90
2022-12-05T05:24:21.873Z,5.90
2022-12-05T05:26:53.955Z,5.90
2022-12-05T05:29:23.822Z,5.90
2022-12-05T05:31:50.662Z,5.90
2022-12-05T05:34:17.448Z,5.90
2022-12-05T05:36:44.223Z,5.90
2022-12-05T05:39:12.431Z,5.90
2022-12-05T05:41:39.251Z,5.90
2022-12-05T05:44:06.019Z,5.90
2022-12-05T05:46:34.412Z,5.90
2022-12-05T05:49:01.430Z,6.00
2022-12-05T05:51:29.499Z,6.00
2022-12-05T05:53:57.976Z,6.00
2022-12-05T05:56:50.271Z,6.00
2022-12-05T05:59:17.057Z,6.10
2022-12-05T06:01:44.191Z,6.00
2022-12-05T06:04:11.031Z,5.90
2022-12-05T06:06:37.831Z,5.80
2022-12-05T06:09:06.420Z,5.80
2022-12-05T06:11:33.213Z,5.70
2022-12-05T06:14:02.900Z,5.70
2022-12-05T06:16:30.848Z,5.70
2022-12-05T06:18:58.288Z,5.60
2022-12-05T06:21:26.771Z,5.60
2022-12-05T06:23:54.253Z,5.60
2022-12-05T06:26:21.843Z,5.60
2022-12-05T06:28:48.631Z,5.60
2022-12-05T06:31:23.464Z,5.60
2022-12-05T06:33:51.504Z,5.60
2022-12-05T06:36:19.417Z,5.60
2022-12-05T06:38:46.426Z,5.60
2022-12-05T06:41:18.416Z,5.60
2022-12-05T06:43:45.436Z,5.60
2022-12-05T06:46:13.609Z,5.60
2022-12-05T06:48:40.693Z,5.60
2022-12-05T06:51:09.829Z,5.50
2022-12-05T06:53:38.072Z,5.40
2022-12-05T06:56:07.468Z,5.50
2022-12-05T06:58:34.351Z,5.40
2022-12-05T07:01:20.115Z,5.40
2022-12-05T07:03:48.979Z,5.40
2022-12-05T07:06:16.330Z,5.50
2022-12-05T07:08:43.498Z,5.40
2022-12-05T07:11:10.888Z,5.40
2022-12-05T07:13:37.798Z,5.40
2022-12-05T07:16:07.172Z,5.50
2022-12-05T07:18:34.888Z,5.50
2022-12-05T07:21:11.813Z,5.50
2022-12-05T07:23:40.307Z,5.60
2022-12-05T07:26:07.972Z,5.50
2022-12-05T07:28:34.789Z,5.50
2022-12-05T07:31:02.223Z,5.50
2022-12-05T07:33:29.354Z,5.50
2022-12-05T07:36:00.588Z,5.40
2022-12-05T07:38:27.905Z,5.50
2022-12-05T07:40:54.659Z,5.50
2022-12-05T07:43:21.602Z,5.50
2022-12-05T07:45:48.547Z,5.50
2022-12-05T07:48:18.520Z,5.40
2022-12-05T07:50:45.969Z,5.50
2022-12-05T07:53:12.790Z,5.40
2022-12-05T07:55:39.564Z,5.30
2022-12-05T07:58:06.434Z,5.30
2022-12-05T08:00:33.251Z,5.20
2022-12-05T08:03:02.580Z,5.20
2022-12-05T08:05:29.484Z,5.30
2022-12-05T08:07:56.368Z,5.30
2022-12-05T08:10:23.301Z,5.20
2022-12-05T08:12:56.480Z,5.20
2022-12-05T08:15:23.728Z,5.10
2022-12-05T08:17:51.122Z,5.10
2022-12-05T08:20:18.928Z,5.20
2022-12-05T08:22:48.458Z,5.20
2022-12-05T08:25:15.701Z,5.20
2022-12-05T08:27:42.640Z,5.10
2022-12-05T08:30:13.022Z,5.10
2022-12-05T08:32:40.168Z,5.20
2022-12-05T08:35:07.307Z,5.20
2022-12-05T08:37:34.175Z,5.20
2022-12-05T08:40:03.798Z,5.10
2022-12-05T08:42:33.354Z,5.20
2022-12-05T08:45:00.811Z,5.10
2022-12-05T08:47:35.298Z,5.10
2022-12-05T08:50:05.145Z,5.10
2022-12-05T08:52:33.815Z,4.90
2022-12-05T08:55:03.048Z,4.90
2022-12-05T08:57:30.624Z,4.90
2022-12-05T08:59:58.710Z,5.00
2022-12-05T09:02:26.768Z,5.00
2022-12-05T09:04:54.193Z,5.00
2022-12-05T09:07:21.097Z,5.00
2022-12-05T09:09:48.150Z,4.90
2022-12-05T09:12:15.059Z,4.90
2022-12-05T09:14:41.885Z,4.90
2022-12-05T09:17:08.652Z,4.90
2022-12-05T09:19:35.410Z,4.90
2022-12-05T09:22:02.287Z,4.90
2022-12-05T09:24:29.019Z,4.90
2022-12-05T09:26:55.782Z,5.00
2022-12-05T09:29:25.463Z,4.90
2022-12-05T09:31:53.991Z,4.90
2022-12-05T09:34:20.761Z,4.90
2022-12-05T09:36:55.622Z,4.90
2022-12-05T09:39:25.359Z,4.90
2022-12-05T09:42:13.077Z,4.90
2022-12-05T09:44:40.191Z,4.90
2022-12-05T09:47:22.398Z,5.00
2022-12-05T09:49:51.496Z,5.00
2022-12-05T09:52:26.911Z,5.00
2022-12-05T09:54:54.564Z,4.90
2022-12-05T09:57:32.042Z,4.80
2022-12-05T10:00:00.591Z,4.80
2022-12-05T10:02:44.113Z,4.90
2022-12-05T10:05:27.450Z,4.80
2022-12-05T10:07:57.445Z,4.90
2022-12-05T10:10:39.728Z,4.90
2022-12-05T10:13:25.367Z,4.90
2022-12-05T10:15:58.124Z,4.90
2022-12-05T10:18:24.834Z,4.80
2022-12-05T10:20:54.862Z,4.90
2022-12-05T10:23:55.471Z,4.80
2022-12-05T10:26:12.756Z,4.90
2022-12-05T10:29:02.368Z,4.80
2022-12-05T10:31:33.756Z,4.80
2022-12-05T10:34:04.433Z,4.80
2022-12-05T10:36:31.882Z,4.90
2022-12-05T10:38:59.835Z,4.80
2022-12-05T10:41:26.694Z,4.90
2022-12-05T10:43:53.528Z,4.80
2022-12-05T10:46:20.361Z,4.80
2022-12-05T10:48:47.224Z,4.80
2022-12-05T10:51:16.566Z,4.70
2022-12-05T10:53:50.804Z,4.70
2022-12-05T10:56:36.375Z,4.80
2022-12-05T10:59:03.299Z,4.70
2022-12-05T11:01:31.397Z,4.70
2022-12-05T11:04:00.830Z,4.70
2022-12-05T11:06:28.908Z,4.70
2022-12-05T11:09:05.342Z,4.70
2022-12-05T11:11:33.521Z,4.70
2022-12-05T11:14:01.891Z,4.80
2022-12-05T11:16:30.525Z,4.80
2022-12-05T11:18:57.326Z,4.80
2022-12-05T11:21:24.128Z,4.80
2022-12-05T11:23:50.979Z,4.70
2022-12-05T11:26:35.545Z,4.70
2022-12-05T11:29:04.420Z,4.80
2022-12-05T11:31:31.699Z,4.70
2022-12-05T11:34:03.916Z,4.80
2022-12-05T11:36:37.095Z,4.70
2022-12-05T11:39:03.972Z,4.70
2022-12-05T11:41:34.315Z,4.70
2022-12-05T11:44:10.315Z,4.70
2022-12-05T11:46:40.376Z,4.60
2022-12-05T11:49:25.614Z,4.60
2022-12-05T11:51:52.439Z,4.60
2022-12-05T11:54:35.524Z,4.60
2022-12-05T11:57:12.034Z,4.60
2022-12-05T11:59:41.979Z,4.60
2022-12-05T12:02:18.136Z,4.60
2022-12-05T12:04:51.260Z,4.60
2022-12-05T12:07:36.765Z,4.60
2022-12-05T12:10:18.845Z,4.60
2022-12-05T12:13:02.543Z,4.60
2022-12-05T12:15:38.643Z,4.70
2022-12-05T12:18:13.135Z,4.60
2022-12-05T12:20:56.742Z,4.60
2022-12-05T12:23:42.782Z,4.50
2022-12-05T12:26:26.993Z,4.50
2022-12-05T12:28:59.816Z,4.60
2022-12-05T12:31:32.813Z,4.60
2022-12-05T12:34:16.400Z,4.60
2022-12-05T12:36:53.807Z,4.60
2022-12-05T12:39:23.898Z,4.60
2022-12-05T12:42:05.426Z,4.70
2022-12-05T12:44:57.112Z,4.70
2022-12-05T12:47:45.594Z,4.70
2022-12-05T12:50:26.678Z,4.70
2022-12-05T12:53:13.389Z,4.80
2022-12-05T12:55:46.673Z,4.70
2022-12-05T12:58:23.786Z,4.70
2022-12-05T13:01:13.892Z,4.70
2022-12-05T13:03:51.805Z,4.70
2022-12-05T13:06:27.578Z,4.70
2022-12-05T13:08:57.436Z,4.70
2022-12-05T13:11:30.691Z,4.80
2022-12-05T13:13:59.469Z,4.70
2022-12-05T13:16:28.592Z,4.70
2022-12-05T13:18:56.021Z,4.70
2022-12-05T13:21:23.723Z,4.70
2022-12-05T13:23:51.951Z,4.70
2022-12-05T13:26:18.969Z,4.70
2022-12-05T13:28:51.523Z,4.70
2022-12-05T13:31:19.517Z,4.70
2022-12-05T13:33:50.431Z,4.60
2022-12-05T13:36:40.346Z,4.60
2022-12-05T13:39:32.176Z,4.60
2022-12-05T13:42:17.875Z,4.60
2022-12-05T13:45:03.462Z,4.70
2022-12-05T13:47:33.291Z,4.70
2022-12-05T13:50:23.437Z,4.70
2022-12-05T13:52:53.759Z,4.60
2022-12-05T13:55:30.808Z,4.70
2022-12-05T13:58:01.649Z,4.70
2022-12-05T14:00:32.814Z,4.70
2022-12-05T14:03:01.684Z,4.70
2022-12-05T14:06:01.167Z,4.70
2022-12-05T14:08:30.978Z,4.60
2022-12-05T14:10:57.771Z,4.60
2022-12-05T14:13:25.399Z,4.60
2022-12-05T14:16:12.244Z,4.60
2022-12-05T14:18:42.267Z,4.70
2022-12-05T14:21:10.036Z,4.70
2022-12-05T14:23:37.049Z,4.70
2022-12-05T14:26:23.714Z,4.70
2022-12-05T14:28:53.617Z,4.60
2022-12-05T14:31:23.489Z,4.60
2022-12-05T14:34:09.247Z,4.70
2022-12-05T14:36:38.377Z,4.60
2022-12-05T14:39:20.480Z,4.60
2022-12-05T14:41:47.576Z,4.60
2022-12-05T14:44:18.475Z,4.60
2022-12-05T14:46:45.546Z,4.60
2022-12-05T14:49:35.301Z,4.60
2022-12-05T14:52:09.919Z,4.50
2022-12-05T14:54:37.352Z,4.60
2022-12-05T14:57:17.696Z,4.50
2022-12-05T14:59:51.322Z,4.50
2022-12-05T15:02:29.766Z,4.60
2022-12-05T15:05:00.741Z,4.60
2022-12-05T15:07:35.073Z,4.50
2022-12-05T15:10:11.268Z,4.60
2022-12-05T15:12:44.476Z,4.60
2022-12-05T15:15:31.527Z,4.50
2022-12-05T15:18:00.881Z,4.50
2022-12-05T15:20:34.287Z,4.60
2022-12-05T15:23:03.831Z,4.50
2022-12-05T15:25:31.891Z,4.60
2022-12-05T15:28:00.754Z,4.50
2022-12-05T15:30:28.259Z,4.50
2022-12-05T15:32:59.643Z,4.60
2022-12-05T15:35:28.553Z,4.60
2022-12-05T15:38:01.138Z,4.60
2022-12-05T15:40:37.056Z,4.60
2022-12-05T15:43:23.899Z,4.50
2022-12-05T15:45:50.724Z,4.50
2022-12-05T15:48:22.886Z,4.50
2022-12-05T15:50:51.720Z,4.50
2022-12-05T15:53:21.567Z,4.50
2022-12-05T15:55:54.730Z,4.50
2022-12-05T15:58:41.747Z,4.50
2022-12-05T16:01:14.402Z,4.50
2022-12-05T16:03:56.385Z,4.40
2022-12-05T16:06:38.766Z,4.40
2022-12-05T16:09:11.303Z,4.40
2022-12-05T16:11:38.615Z,4.50
2022-12-05T16:14:07.188Z,4.40
2022-12-05T16:16:35.799Z,4.40
2022-12-05T16:19:12.609Z,4.50
2022-12-05T16:21:47.595Z,4.50
2022-12-05T16:24:20.085Z,4.50
2022-12-05T16:27:03.942Z,4.50
2022-12-05T16:29:32.046Z,4.50
2022-12-05T16:32:00.407Z,4.40
2022-12-05T16:34:28.924Z,4.40
2022-12-05T16:36:56.767Z,4.40
2022-12-05T16:39:24.544Z,4.40
2022-12-05T16:41:51.593Z,4.40
2022-12-05T16:44:28.132Z,4.40
2022-12-05T16:46:55.977Z,4.40
2022-12-05T16:49:46.019Z,4.40
2022-12-05T16:52:14.625Z,4.40
2022-12-05T16:54:42.626Z,4.40
2022-12-05T16:57:10.859Z,4.40
2022-12-05T16:59:38.949Z,4.40
2022-12-05T17:02:11.832Z,4.40
2022-12-05T17:04:38.945Z,4.40
2022-12-05T17:07:05.729Z,4.40
2022-12-05T17:09:32.661Z,4.30
2022-12-05T17:12:02.733Z,4.30
2022-12-05T17:14:29.638Z,4.30
2022-12-05T17:16:56.452Z,4.40
2022-12-05T17:19:24.042Z,4.40
2022-12-05T17:21:50.872Z,4.40
2022-12-05T17:24:18.642Z,4.40
2022-12-05T17:26:46.320Z,4.40
2022-12-05T17:29:13.189Z,4.30
2022-12-05T17:31:40.106Z,4.40
2022-12-05T17:34:15.884Z,4.30
2022-12-05T17:36:43.151Z,4.40
2022-12-05T17:39:10.307Z,4.30
2022-12-05T17:41:37.751Z,4.30
2022-12-05T17:44:04.947Z,4.30
2022-12-05T17:46:31.748Z,4.30
2022-12-05T17:48:58.690Z,4.30
2022-12-05T17:51:25.675Z,4.30
2022-12-05T17:53:53.101Z,4.30
2022-12-05T17:56:20.217Z,4.30
2022-12-05T17:58:47.015Z,4.30
2022-12-05T18:01:15.146Z,4.30
2022-12-05T18:03:42.487Z,4.30
2022-12-05T18:06:09.718Z,4.30
2022-12-05T18:08:39.716Z,4.30
2022-12-05T18:11:07.118Z,4.20
2022-12-05T18:13:34.112Z,4.30
2022-12-05T18:16:01.364Z,4.20
2022-12-05T18:18:29.411Z,4.20
2022-12-05T18:21:05.406Z,4.20
2022-12-05T18:23:32.302Z,4.30
2022-12-05T18:25:59.971Z,4.30
2022-12-05T18:28:26.971Z,4.30
2022-12-05T18:31:04.105Z,4.30
2022-12-05T18:33:31.979Z,4.30
2022-12-05T18:36:03.471Z,4.20
2022-12-05T18:38:30.311Z,4.20
2022-12-05T18:41:04.028Z,4.20
2022-12-05T18:43:31.851Z,4.20
2022-12-05T18:45:59.652Z,4.20
2022-12-05T18:48:46.963Z,4.20
2022-12-05T18:51:14.908Z,4.20
2022-12-05T18:53:42.151Z,4.20
2022-12-05T18:56:22.032Z,4.20
2022-12-05T18:58:53.940Z,4.20
2022-12-05T19:01:21.289Z,4.20
2022-12-05T19:03:49.458Z,4.20
2022-12-05T19:06:20.712Z,4.20
2022-12-05T19:08:53.438Z,4.20
2022-12-05T19:11:20.305Z,4.20
2022-12-05T19:13:50.497Z,4.20
2022-12-05T19:16:18.888Z,4.30
2022-12-05T19:18:47.027Z,4.20
2022-12-05T19:21:13.976Z,4.30
2022-12-05T19:23:41.191Z,4.20
2022-12-05T19:26:08.671Z,4.20
2022-12-05T19:28:36.038Z,4.20
2022-12-05T19:31:07.175Z,4.20
2022-12-05T19:33:35.030Z,4.20
2022-12-05T19:36:03.252Z,4.20
2022-12-05T19:38:31.076Z,4.20
2022-12-05T19:41:01.871Z,4.20
2022-12-05T19:43:32.436Z,4.20
2022-12-05T19:46:02.240Z,4.20
2022-12-05T19:48:29.364Z,4.20
2022-12-05T19:51:02.556Z,4.20
2022-12-05T19:53:33.486Z,4.30
2022-12-05T19:56:01.609Z,4.20
2022-12-05T19:58:35.279Z,4.20
2022-12-05T20:01:21.921Z,4.20
2022-12-05T20:04:00.271Z,4.20
2022-12-05T20:06:30.352Z,4.20
2022-12-05T20:08:58.765Z,4.20
2022-12-05T20:11:28.082Z,4.20
2022-12-05T20:13:55.559Z,4.20
2022-12-05T20:16:23.609Z,4.20
2022-12-05T20:18:50.489Z,4.20
2022-12-05T20:21:19.314Z,4.30
2022-12-05T20:23:46.820Z,4.20
2022-12-05T20:26:20.209Z,4.20
2022-12-05T20:28:58.687Z,4.30
2022-12-05T20:31:30.597Z,4.30
2022-12-05T20:33:57.698Z,4.30
2022-12-05T20:36:25.775Z,4.30
2022-12-05T20:39:13.944Z,4.30
2022-12-05T20:41:40.994Z,4.30
2022-12-05T20:44:08.128Z,4.30
2022-12-05T20:46:36.883Z,4.30
2022-12-05T20:49:04.018Z,4.30
2022-12-05T20:51:32.348Z,4.30
2022-12-05T20:54:00.070Z,4.30
2022-12-05T20:56:29.145Z,4.30
2022-12-05T20:58:57.412Z,4.30
2022-12-05T21:01:27.598Z,4.30
2022-12-05T21:03:55.886Z,4.30
2022-12-05T21:06:24.344Z,4.30
2022-12-05T21:08:51.816Z,4.30
2022-12-05T21:11:19.196Z,4.30
2022-12-05T21:13:46.518Z,4.30
2022-12-05T21:16:18.937Z,4.30
2022-12-05T21:18:46.387Z,4.40
2022-12-05T21:21:14.683Z,4.30
2022-12-05T21:23:42.308Z,4.40
2022-12-05T21:26:11.920Z,4.30
2022-12-05T21:28:38.970Z,4.30
2022-12-05T21:31:09.850Z,4.40
2022-12-05T21:33:37.356Z,4.40
2022-12-05T21:36:04.783Z,4.40
2022-12-05T21:38:31.907Z,4.40
2022-12-05T21:40:58.846Z,4.40
2022-12-05T21:43:25.864Z,4.40
2022-12-05T21:45:53.281Z,4.40
2022-12-05T21:48:23.499Z,4.40
2022-12-05T21:50:50.576Z,4.40
2022-12-05T21:53:17.882Z,4.40
2022-12-05T21:55:44.906Z,4.40
2022-12-05T21:58:11.921Z,4.40
2022-12-05T22:00:39.244Z,4.40
2022-12-05T22:03:06.578Z,4.40
2022-12-05T22:05:33.571Z,4.40
2022-12-05T22:08:04.790Z,4.40
2022-12-05T22:10:40.656Z,4.40
2022-12-05T22:13:16.077Z,4.40
2022-12-05T22:15:43.008Z,4.40
2022-12-05T22:18:11.029Z,4.40
2022-12-05T22:20:39.940Z,4.40
2022-12-05T22:23:06.742Z,4.40
2022-12-05T22:25:33.577Z,4.40
2022-12-05T22:28:00.607Z,4.40
2022-12-05T22:30:27.475Z,4.40
2022-12-05T22:32:54.320Z,4.40
2022-12-05T22:35:21.431Z,4.40
2022-12-05T22:37:48.322Z,4.50
2022-12-05T22:40:15.450Z,4.50
2022-12-05T22:42:42.204Z,4.50
2022-12-05T22:45:09.346Z,4.50
2022-12-05T22:47:37.243Z,4.50
2022-12-05T22:50:04.210Z,4.50
2022-12-05T22:52:31.135Z,4.50
2022-12-05T22:54:58.204Z,4.50
2022-12-05T22:57:25.201Z,4.50
2022-12-05T22:59:52.226Z,4.50
2022-12-05T23:02:20.287Z,4.50
2022-12-05T23:04:47.122Z,4.50
2022-12-05T23:07:13.911Z,4.50
2022-12-05T23:09:40.788Z,4.50
2022-12-05T23:12:07.781Z,4.50
2022-12-05T23:14:34.790Z,4.50
2022-12-05T23:17:01.702Z,4.60
2022-12-05T23:19:28.662Z,4.60
2022-12-05T23:21:56.764Z,4.60
2022-12-05T23:24:24.810Z,4.50
2022-12-05T23:26:51.749Z,4.50
2022-12-05T23:29:19.689Z,4.60
2022-12-05T23:31:46.656Z,4.60
2022-12-05T23:34:14.653Z,4.60
2022-12-05T23:36:47.899Z,4.60
2022-12-05T23:39:14.694Z,4.60
2022-12-05T23:41:41.735Z,4.60
2022-12-05T23:44:08.666Z,4.60
2022-12-05T23:46:35.677Z,4.60
2022-12-05T23:49:03.886Z,4.60
2022-12-05T23:51:30.972Z,4.60
2022-12-05T23:53:59.875Z,4.60
2022-12-05T23:56:30.374Z,4.60
2022-12-05T23:58:57.281Z,4.60
